Urgench, Uzbekistan
Current Conditions -  °F | °C
As of 2:30 AM on Saturday 29 Nov 2014 (Local Time) from UTNU Reporting Station
Clear Clear  
Wind Chill: 11°   Ceiling: Unl
Heat Index: 19°   Visibility: 6mi
Dew Point: 10°   Wind: 6mph
Humidity: 68%   Direction: 50°NE
Pressure: 30.39"   Gusts: NA
Location:  41.55°N, 60.62°E
Report Text: UTNU 282130Z 05005KT CAVOK M07/M12 Q1029 R31/CLRD70 NOSIG
Loading
Personal Weather Stations






























Interactive Weather Map New forecast layout! Learn more

10-Day Weather Forecast

Advertisements
Track Severe Weather on mobile